Time;durP1;ratioP1;P1;durP2;ratioP2;P2;SDS_P1;SDS_P2;PMS_P1;PMS_P2;Temp;Humidity;BMP_temperature;BMP_pressure;BME280_temperature;BME280_humidity;BME280_pressure;Samples;Min_cycle;Max_cycle;Signal;HPM_P1;HPM_P2
2022/01/02 00:04:04;;;;;;;16.92;12.48;;;;;;;19.24;56.21;97255.25;10376328;28;20475;-21
2022/01/02 00:09:06;;;;;;;15.18;12.20;;;;;;;19.29;55.84;97248.50;10360903;28;20079;-21
2022/01/02 00:14:09;;;;;;;17.88;12.07;;;;;;;19.31;55.94;97255.28;10371977;28;20080;-21
2022/01/02 00:19:28;;;;;;;19.13;12.35;;;;;;;19.30;55.28;97255.25;10391323;28;20096;-21
2022/01/02 00:24:30;;;;;;;17.13;12.73;;;;;;;19.27;56.08;97256.09;10363014;28;20100;-21
2022/01/02 00:29:31;;;;;;;20.63;12.80;;;;;;;19.30;55.93;97250.19;10363159;28;20088;-21
2022/01/02 00:34:33;;;;;;;15.20;11.68;;;;;;;19.29;55.96;97246.81;10363629;28;20041;-21
2022/01/02 00:39:34;;;;;;;19.50;12.73;;;;;;;19.28;56.01;97252.75;10361897;28;20030;-20
2022/01/02 00:44:57;;;;;;;16.13;11.80;;;;;;;19.28;55.84;97242.59;10362240;28;20403;-21
2022/01/02 00:50:14;;;;;;;18.35;12.43;;;;;;;19.27;56.19;97234.94;10361690;28;20121;-21
2022/01/02 00:55:21;;;;;;;18.30;11.38;;;;;;;19.27;55.88;97228.16;10363557;28;20129;-21
2022/01/02 01:00:23;;;;;;;16.73;11.35;;;;;;;19.27;56.04;97240.03;10361632;28;20172;-21
2022/01/02 01:05:28;;;;;;;18.42;11.27;;;;;;;19.26;56.18;97238.34;10361430;28;20026;-21
2022/01/02 01:10:34;;;;;;;17.87;12.40;;;;;;;19.25;56.07;97226.50;10365425;28;20045;-21
2022/01/02 01:15:36;;;;;;;15.13;10.80;;;;;;;19.27;56.07;97214.63;10395053;28;20396;-21
2022/01/02 01:20:41;;;;;;;19.60;11.23;;;;;;;19.27;56.00;97219.72;10389824;28;20088;-21
2022/01/02 01:25:45;;;;;;;14.80;11.05;;;;;;;19.26;55.94;97210.41;10372792;28;20037;-21
2022/01/02 01:30:48;;;;;;;15.30;11.35;;;;;;;19.25;55.80;97213.78;10376648;28;20041;-21
2022/01/02 01:35:49;;;;;;;14.27;10.65;;;;;;;19.26;56.08;97215.47;10372196;28;20449;-21
2022/01/02 01:40:58;;;;;;;16.33;10.25;;;;;;;19.26;55.99;97207.88;10373253;28;20054;-21
2022/01/02 01:45:59;;;;;;;14.13;9.70;;;;;;;19.24;55.95;97199.41;10371466;28;20113;-21
2022/01/02 01:51:00;;;;;;;12.73;10.57;;;;;;;19.26;56.03;97192.63;10373128;28;20401;-21
2022/01/02 01:56:00;;;;;;;14.55;10.88;;;;;;;19.24;55.93;97199.41;10370787;28;20049;-21
2022/01/02 02:01:03;;;;;;;15.75;9.93;;;;;;;19.26;55.88;97190.09;10370734;28;20030;-21
2022/01/02 02:06:14;;;;;;;13.32;9.75;;;;;;;19.24;55.95;97181.63;10371207;28;20100;-21
2022/01/02 02:11:14;;;;;;;15.13;10.02;;;;;;;19.26;55.87;97177.41;10371942;28;20086;-21
2022/01/02 02:16:15;;;;;;;11.93;8.75;;;;;;;19.26;55.93;97177.41;10397032;28;20040;-21
2022/01/02 02:21:26;;;;;;;16.30;10.35;;;;;;;19.25;55.85;97165.56;10390473;28;20137;-23
2022/01/02 02:26:26;;;;;;;17.35;9.85;;;;;;;19.23;55.92;97172.28;10371549;28;20044;-21
2022/01/02 02:31:27;;;;;;;13.48;9.45;;;;;;;19.25;55.88;97160.47;10369919;28;20125;-21
2022/01/02 02:36:29;;;;;;;15.73;8.90;;;;;;;19.25;55.85;97156.22;10371325;28;20040;-21
2022/01/02 02:41:34;;;;;;;13.05;9.18;;;;;;;19.25;55.86;97135.09;10369702;28;20042;-21
2022/01/02 02:52:00;;;;;;;10.93;8.93;;;;;;;19.25;55.97;97146.09;10370711;28;20036;-21
2022/01/02 02:57:12;;;;;;;11.18;8.60;;;;;;;19.22;55.97;97141.00;10369361;28;20546;-21
2022/01/02 03:02:12;;;;;;;11.60;9.05;;;;;;;19.26;55.92;97121.56;10368769;28;20029;-22
2022/01/02 03:07:17;;;;;;;11.68;8.18;;;;;;;19.23;55.99;97114.78;10368427;28;20045;-21
2022/01/02 03:12:19;;;;;;;11.52;8.77;;;;;;;19.19;55.96;97095.28;10369803;28;20034;-21
2022/01/02 03:17:22;;;;;;;14.77;9.48;;;;;;;19.25;55.82;97097.03;10403347;28;20033;-21
2022/01/02 03:22:23;;;;;;;10.73;7.60;;;;;;;19.23;55.79;97093.59;10383723;28;20034;-21
2022/01/02 03:27:25;;;;;;;11.98;8.35;;;;;;;19.24;55.72;97082.63;10368540;28;20280;-21
2022/01/02 03:32:26;;;;;;;12.07;8.63;;;;;;;19.22;55.81;97079.22;10381596;28;20030;-21
2022/01/02 03:37:28;;;;;;;12.25;8.77;;;;;;;19.18;56.03;97068.16;10383903;28;20038;-21
2022/01/02 03:42:30;;;;;;;12.60;8.18;;;;;;;19.21;55.98;97072.44;10383706;28;20026;-21
2022/01/02 03:47:31;;;;;;;9.65;7.72;;;;;;;19.23;55.93;97076.69;10367358;28;20044;-21
2022/01/02 03:52:32;;;;;;;10.85;8.65;;;;;;;19.24;55.92;97067.41;10383991;28;20042;-21
2022/01/02 03:57:33;;;;;;;11.73;8.30;;;;;;;19.24;55.73;97072.47;10366721;28;20038;-21
2022/01/02 04:02:37;;;;;;;11.73;7.85;;;;;;;19.21;55.80;97058.09;10368196;28;20038;-21
2022/01/02 04:07:38;;;;;;;9.45;7.35;;;;;;;19.23;55.70;97061.47;10381551;28;20308;-21
2022/01/02 04:12:39;;;;;;;9.13;7.40;;;;;;;19.23;55.73;97051.31;10382957;28;20037;-21
2022/01/02 04:17:41;;;;;;;9.05;7.95;;;;;;;19.23;55.90;97053.00;10420910;28;20036;-21
2022/01/02 04:22:43;;;;;;;11.50;8.15;;;;;;;19.23;55.95;97050.44;10367752;28;20032;-20
2022/01/02 04:27:44;;;;;;;9.55;7.35;;;;;;;19.14;55.89;97027.56;10382618;28;20496;-21
2022/01/02 04:32:48;;;;;;;12.05;7.50;;;;;;;19.22;56.14;97038.59;10366053;28;20026;-21
2022/01/02 04:37:49;;;;;;;11.63;7.55;;;;;;;19.24;55.79;97031.88;10367889;28;20115;-21
2022/01/02 04:42:49;;;;;;;8.63;7.20;;;;;;;19.22;55.84;97033.53;10366957;28;20460;-21
2022/01/02 04:47:50;;;;;;;11.13;7.30;;;;;;;19.21;55.95;97036.91;10388802;28;20025;-21
2022/01/02 04:52:51;;;;;;;12.63;7.57;;;;;;;19.23;56.11;97037.75;10389907;28;20034;-21
2022/01/02 04:57:51;;;;;;;9.32;7.63;;;;;;;19.23;55.82;97033.53;10373415;28;20515;-21
2022/01/02 05:02:52;;;;;;;8.32;7.00;;;;;;;19.21;55.85;97032.69;10374672;28;20041;-21
2022/01/02 05:07:54;;;;;;;9.98;7.35;;;;;;;19.22;55.84;97019.16;10389487;28;20116;-21
2022/01/02 05:12:54;;;;;;;9.75;6.25;;;;;;;19.25;56.00;97020.88;10373439;28;20129;-21
2022/01/02 05:17:55;;;;;;;10.40;7.40;;;;;;;19.27;56.11;97014.09;10413166;28;20399;-21
2022/01/02 05:22:55;;;;;;;8.50;6.73;;;;;;;19.28;55.86;97008.16;10388939;28;20034;-21
2022/01/02 05:27:56;;;;;;;9.23;6.80;;;;;;;19.27;55.95;97011.56;10373927;28;20310;-21
2022/01/02 05:32:57;;;;;;;8.70;6.45;;;;;;;19.27;56.16;97007.31;10371977;28;20276;-21
2022/01/02 05:37:58;;;;;;;9.53;6.53;;;;;;;19.30;55.95;97002.25;10373687;28;20029;-21
2022/01/02 05:43:03;;;;;;;8.60;6.63;;;;;;;19.29;55.85;96999.69;10372469;28;20048;-21
2022/01/02 05:48:05;;;;;;;7.53;6.72;;;;;;;19.29;55.88;96998.03;10373240;28;20030;-21
2022/01/02 05:53:07;;;;;;;10.73;6.45;;;;;;;19.28;55.90;96983.63;10371255;28;20036;-21
2022/01/02 05:58:08;;;;;;;11.43;6.75;;;;;;;19.28;55.77;96980.25;10371519;28;20034;-21
2022/01/02 06:03:08;;;;;;;8.57;6.28;;;;;;;19.30;55.84;96973.47;10387381;28;20111;-21
2022/01/02 06:08:09;;;;;;;7.35;6.55;;;;;;;19.28;56.07;96967.53;10370615;28;20030;-21
2022/01/02 06:13:10;;;;;;;8.50;6.53;;;;;;;19.23;55.95;96959.94;10387904;28;20038;-21
2022/01/02 06:18:10;;;;;;;9.20;6.88;;;;;;;19.27;56.16;96965.84;10408529;28;20277;-21
2022/01/02 06:23:12;;;;;;;7.72;6.18;;;;;;;19.27;55.99;96968.41;10387048;28;20105;-21
2022/01/02 06:28:13;;;;;;;9.55;6.50;;;;;;;19.29;55.75;96962.47;10370855;28;20080;-21
2022/01/02 06:33:13;;;;;;;7.03;5.90;;;;;;;19.32;55.69;96964.16;10371161;28;20034;-21
2022/01/02 06:38:20;;;;;;;8.05;6.10;;;;;;;19.27;55.94;96950.63;10370099;28;20037;-21
2022/01/02 06:43:24;;;;;;;10.73;6.63;;;;;;;19.33;55.66;96937.94;10370846;28;20151;-21
2022/01/02 06:48:25;;;;;;;8.32;6.53;;;;;;;19.33;55.68;96940.47;10369332;28;20522;-21
2022/01/02 06:53:25;;;;;;;9.35;6.60;;;;;;;19.32;55.64;96941.31;10370798;28;20036;-21
2022/01/02 06:58:26;;;;;;;9.13;6.47;;;;;;;19.30;55.75;96932.84;10395639;28;20120;-20
2022/01/02 07:03:26;;;;;;;8.90;6.35;;;;;;;19.28;55.79;96930.31;10401469;28;20025;-21
2022/01/02 07:08:28;;;;;;;11.53;7.00;;;;;;;19.32;55.51;96936.22;10402594;28;20022;-21
2022/01/02 07:13:29;;;;;;;35.67;8.73;;;;;;;19.38;55.69;96944.72;10389049;28;20514;-21
2022/01/02 07:18:29;;;;;;;12.27;6.80;;;;;;;19.35;55.50;96943.84;10404433;28;20036;-21
2022/01/02 07:23:30;;;;;;;8.67;6.60;;;;;;;19.31;55.64;96942.16;10369911;28;20069;-21
2022/01/02 07:28:33;;;;;;;7.83;5.83;;;;;;;19.31;55.74;96952.31;10369310;28;20292;-21
2022/01/02 07:33:33;;;;;;;10.13;5.80;;;;;;;19.33;55.78;96968.41;10368022;28;20456;-20
2022/01/02 07:38:34;;;;;;;12.10;6.93;;;;;;;19.35;55.62;96965.00;10368551;28;20100;-21
2022/01/02 07:43:34;;;;;;;14.77;7.50;;;;;;;19.30;55.87;96961.63;10368660;28;20802;-21
2022/01/02 07:48:34;;;;;;;13.83;8.43;;;;;;;19.35;55.65;96954.00;10368858;28;20022;-21
2022/01/02 07:53:35;;;;;;;12.93;7.90;;;;;;;19.36;55.95;96955.69;10368435;28;20281;-20
2022/01/02 07:58:35;;;;;;;13.32;7.20;;;;;;;19.38;55.82;96959.94;10367731;28;20121;-21
2022/01/02 08:03:36;;;;;;;13.65;6.93;;;;;;;19.37;55.99;96962.47;10367180;28;20041;-21
2022/01/02 08:08:36;;;;;;;13.90;8.30;;;;;;;19.37;55.76;96982.78;10368382;28;20128;-21
2022/01/02 08:13:36;;;;;;;14.95;7.47;;;;;;;19.35;55.10;96975.16;10371942;28;20480;-21
2022/01/02 08:18:37;;;;;;;18.40;9.90;;;;;;;19.37;55.77;96977.69;10401932;28;20041;-21
2022/01/02 08:23:37;;;;;;;5.70;4.63;;;;;;;18.12;53.54;96973.88;10374579;28;20095;-20
2022/01/02 08:28:37;;;;;;;7.83;3.50;;;;;;;18.07;49.91;96966.25;10376005;28;20794;-21
2022/01/02 08:33:38;;;;;;;7.63;4.90;;;;;;;18.84;53.41;96984.34;10375559;28;20026;-21
2022/01/02 08:38:38;;;;;;;8.37;3.63;;;;;;;19.03;52.24;96996.25;10374557;28;20586;-21
2022/01/02 08:43:39;;;;;;;8.07;3.87;;;;;;;19.13;52.12;97023.31;10375233;28;20292;-21
2022/01/02 08:48:39;;;;;;;8.18;3.67;;;;;;;19.19;52.01;97044.50;10374895;28;20530;-20
2022/01/02 08:53:40;;;;;;;6.22;3.63;;;;;;;19.23;51.67;97068.22;10374775;28;20489;-21
2022/01/02 08:58:40;;;;;;;4.18;3.17;;;;;;;19.26;51.77;97038.63;10374447;28;20127;-20
2022/01/02 09:03:41;;;;;;;10.27;5.13;;;;;;;19.28;52.22;97033.56;10372814;28;20038;-21
2022/01/02 09:08:41;;;;;;;5.53;3.40;;;;;;;19.26;52.67;97009.84;10373879;28;20044;-21
2022/01/02 09:13:41;;;;;;;4.50;3.28;;;;;;;19.23;52.81;97020.84;10379643;28;20375;-21
2022/01/02 09:18:42;;;;;;;9.77;4.50;;;;;;;19.27;52.92;97021.72;10396436;28;20030;-21
2022/01/02 09:23:42;;;;;;;8.47;4.50;;;;;;;19.26;53.52;97020.84;10370347;28;20034;-21
2022/01/02 09:28:43;;;;;;;17.33;6.40;;;;;;;19.31;53.98;97018.31;10374584;28;20484;-21
2022/01/02 09:33:43;;;;;;;12.93;5.43;;;;;;;19.29;54.16;97036.09;10373946;28;20030;-21
2022/01/02 09:38:43;;;;;;;10.70;4.93;;;;;;;19.26;53.73;97009.84;10374024;28;20041;-21
2022/01/02 09:43:44;;;;;;;14.10;5.85;;;;;;;19.31;54.81;97025.94;10373301;28;20036;-21
2022/01/02 09:48:46;;;;;;;11.60;5.60;;;;;;;19.34;54.42;97023.41;10374074;28;20034;-21
2022/01/02 09:53:48;;;;;;;13.05;5.70;;;;;;;19.37;54.48;97029.34;10376403;28;20069;-21
2022/01/02 09:58:49;;;;;;;11.45;5.22;;;;;;;19.35;55.38;97025.09;10392162;28;20084;-21
2022/01/02 10:03:54;;;;;;;8.68;5.07;;;;;;;19.35;55.61;97040.34;10393188;28;20111;-20
2022/01/02 10:08:55;;;;;;;10.25;4.63;;;;;;;19.38;55.14;97053.03;10388388;28;20115;-21
2022/01/02 10:14:01;;;;;;;7.60;5.03;;;;;;;19.34;55.48;97019.16;10390593;28;20111;-20
2022/01/02 10:19:17;;;;;;;8.98;4.50;;;;;;;19.42;54.97;97042.03;10402686;28;20158;-21
2022/01/02 10:24:21;;;;;;;13.95;5.63;;;;;;;19.40;53.74;97025.94;10406784;28;20037;-21
2022/01/02 10:29:21;;;;;;;9.55;6.07;;;;;;;19.45;52.92;97039.50;10402662;28;20139;-21
2022/01/02 10:34:30;;;;;;;18.13;7.50;;;;;;;19.42;53.04;97057.28;10400308;28;20484;-22
2022/01/02 10:39:32;;;;;;;11.20;5.85;;;;;;;19.46;52.24;97054.75;10397740;28;20033;-22
2022/01/02 10:44:34;;;;;;;16.70;6.85;;;;;;;19.47;52.91;97032.72;10389559;28;20041;-22
2022/01/02 10:49:54;;;;;;;15.18;6.28;;;;;;;19.44;54.19;97042.88;10369816;28;20121;-22
2022/01/02 10:54:57;;;;;;;14.00;6.35;;;;;;;19.42;54.28;97052.19;10370877;28;20034;-22
2022/01/02 10:59:59;;;;;;;11.35;5.05;;;;;;;19.45;52.12;97064.88;10370091;28;20038;-22
2022/01/02 11:05:04;;;;;;;18.05;5.07;;;;;;;19.48;50.16;97077.59;10369539;28;20408;-22
2022/01/02 11:10:05;;;;;;;14.52;6.28;;;;;;;19.48;53.23;97063.22;10392229;28;20565;-21
2022/01/02 11:15:07;;;;;;;13.48;5.45;;;;;;;19.54;53.78;97063.22;10390930;28;20099;-22
2022/01/02 11:20:15;;;;;;;11.25;5.13;;;;;;;19.67;53.47;97048.84;10392205;28;20088;-29
2022/01/02 11:25:28;;;;;;;11.38;5.90;;;;;;;19.75;53.53;97047.16;10369913;28;20034;-22
2022/01/02 11:30:35;;;;;;;9.18;4.57;;;;;;;19.78;53.59;97047.16;10369641;28;20048;-22
2022/01/02 11:35:38;;;;;;;13.52;4.60;;;;;;;19.82;53.74;97048.81;10380640;28;20103;-22
2022/01/02 11:40:41;;;;;;;11.90;5.15;;;;;;;19.85;54.12;97038.69;10409097;28;20133;-22
2022/01/02 11:45:43;;;;;;;18.35;5.07;;;;;;;19.83;54.47;97020.88;10383850;28;20038;-21
2022/01/02 11:50:44;;;;;;;15.00;5.32;;;;;;;19.92;54.56;96989.56;10368349;28;20033;-22
2022/01/02 11:55:46;;;;;;;11.55;4.57;;;;;;;19.81;50.80;96986.16;10368420;28;20041;-22
2022/01/02 12:00:47;;;;;;;10.00;5.50;;;;;;;19.75;53.44;96991.25;10365502;28;20049;-22
2022/01/02 12:06:20;;;;;;;29.33;7.70;;;;;;;19.73;53.74;96980.22;10367625;28;20065;-22
2022/01/02 12:11:32;;;;;;;12.32;4.95;;;;;;;19.67;54.24;96962.47;10367439;28;20041;-22
2022/01/02 12:16:43;;;;;;;20.17;5.03;;;;;;;19.62;54.40;96949.78;10396121;28;20045;-21
2022/01/02 12:22:11;;;;;;;7.50;4.50;;;;;;;19.60;54.70;96956.53;10376092;28;20052;-22
2022/01/02 12:27:16;;;;;;;12.70;4.40;;;;;;;19.58;54.70;96952.31;10366890;28;20088;-21
2022/01/02 12:32:21;;;;;;;8.07;4.25;;;;;;;19.55;54.84;96914.22;10366738;28;20044;-22
2022/01/02 12:37:28;;;;;;;8.10;4.10;;;;;;;19.53;55.05;96903.22;10367233;28;20225;-22
2022/01/02 12:42:29;;;;;;;7.93;3.97;;;;;;;19.53;55.34;96913.38;10366818;28;20440;-22
2022/01/02 12:47:29;;;;;;;7.05;3.50;;;;;;;19.51;55.44;96900.66;10366669;28;20030;-22
2022/01/02 12:52:30;;;;;;;5.53;3.63;;;;;;;19.50;55.54;96908.31;10366558;28;20042;-22
2022/01/02 12:57:30;;;;;;;5.00;3.83;;;;;;;19.48;55.55;96879.50;10366751;28;20339;-22
2022/01/02 13:02:31;;;;;;;10.60;4.20;;;;;;;19.38;56.12;96855.84;10366758;28;20284;-22
2022/01/02 13:07:35;;;;;;;7.00;4.15;;;;;;;19.43;56.10;96855.84;10371302;28;20657;-22
2022/01/02 13:12:37;;;;;;;7.43;3.85;;;;;;;19.43;56.05;96858.38;10373693;28;20042;-22
2022/01/02 13:17:56;;;;;;;7.00;3.85;;;;;;;19.45;56.13;96862.63;10411069;28;20113;-21
2022/01/02 13:22:57;;;;;;;7.07;3.72;;;;;;;19.43;56.20;96868.53;10414074;28;20037;-22
2022/01/02 13:28:11;;;;;;;5.47;3.35;;;;;;;19.44;56.32;96880.38;10405984;28;20041;-22
2022/01/02 13:33:31;;;;;;;5.45;3.50;;;;;;;19.43;56.41;96876.97;10373525;28;20544;-22
2022/01/02 13:38:55;;;;;;;5.68;3.60;;;;;;;19.43;56.41;96886.31;10373081;28;20058;-22
2022/01/02 13:43:57;;;;;;;5.22;3.72;;;;;;;19.43;56.49;96901.53;10372567;28;20131;-22
2022/01/02 13:48:58;;;;;;;5.35;3.30;;;;;;;19.40;56.64;96910.00;10373495;28;20041;-22
2022/01/02 13:53:58;;;;;;;5.53;3.17;;;;;;;19.43;56.46;96912.53;10372444;28;20585;-22
2022/01/02 13:58:58;;;;;;;7.60;3.53;;;;;;;19.43;56.26;96911.69;10372481;28;20030;-22
2022/01/02 14:04:07;;;;;;;7.00;3.67;;;;;;;19.42;56.36;96915.09;10372310;28;20121;-21
2022/01/02 14:09:11;;;;;;;5.43;3.20;;;;;;;19.29;56.28;96904.09;10372448;28;20026;-22
2022/01/02 14:14:26;;;;;;;5.90;3.47;;;;;;;19.40;56.60;96929.44;10380703;28;20041;-22
2022/01/02 14:19:28;;;;;;;5.72;2.67;;;;;;;19.38;56.62;96915.91;10399779;28;20038;-22
2022/01/02 14:24:28;;;;;;;6.03;3.35;;;;;;;19.40;56.64;96921.84;10371527;28;20033;-21
2022/01/02 14:29:28;;;;;;;5.47;2.57;;;;;;;19.40;56.57;96917.63;10370899;28;20128;-22
2022/01/02 14:34:29;;;;;;;5.53;3.05;;;;;;;19.41;56.50;96923.56;10370827;28;20448;-22
2022/01/02 14:39:29;;;;;;;6.72;3.03;;;;;;;19.40;56.73;96934.53;10370606;28;20400;-22
2022/01/02 14:44:30;;;;;;;4.73;3.17;;;;;;;19.41;56.83;96921.84;10370611;28;20041;-21
2022/01/02 14:49:32;;;;;;;6.80;3.17;;;;;;;19.35;56.38;96904.06;10370439;28;20412;-22
2022/01/02 14:54:33;;;;;;;4.18;2.63;;;;;;;19.40;56.70;96943.00;10369993;28;20161;-22
2022/01/02 14:59:34;;;;;;;3.95;2.60;;;;;;;19.41;56.75;96929.47;10370627;28;20065;-22
2022/01/02 15:04:34;;;;;;;6.53;3.20;;;;;;;19.41;56.74;96937.09;10369220;28;20042;-22
2022/01/02 15:09:35;;;;;;;4.40;2.95;;;;;;;19.39;56.41;96937.91;10369826;28;20034;-21
2022/01/02 15:14:35;;;;;;;3.83;2.37;;;;;;;19.38;56.74;96937.09;10381525;28;20041;-22
2022/01/02 15:19:36;;;;;;;5.43;3.20;;;;;;;19.38;56.60;96943.84;10395641;28;20069;-22
2022/01/02 15:24:36;;;;;;;4.37;2.60;;;;;;;19.40;56.61;96939.59;10368850;28;20375;-22
2022/01/02 15:29:37;;;;;;;3.25;2.30;;;;;;;19.39;56.57;96953.16;10368163;28;20296;-22
2022/01/02 15:34:38;;;;;;;4.00;2.33;;;;;;;19.35;56.26;96942.16;10369067;28;20038;-22
2022/01/02 15:39:39;;;;;;;4.53;2.80;;;;;;;19.44;56.28;96956.56;10368435;28;20542;-22
2022/01/02 15:44:39;;;;;;;4.05;2.72;;;;;;;19.41;56.34;96921.00;10368162;28;20038;-22
2022/01/02 15:49:39;;;;;;;4.50;2.37;;;;;;;19.38;56.46;96928.63;10368443;28;20036;-21
2022/01/02 15:54:40;;;;;;;5.87;3.70;;;;;;;19.40;56.38;96920.16;10368321;28;20042;-22
2022/01/02 15:59:40;;;;;;;4.47;2.67;;;;;;;19.40;56.48;96915.06;10368097;28;20038;-22
2022/01/02 16:04:41;;;;;;;4.63;2.20;;;;;;;19.41;56.30;96919.31;10367831;28;20736;-22
2022/01/02 16:09:41;;;;;;;3.47;2.57;;;;;;;19.40;56.30;96929.44;10367509;28;20492;-22
2022/01/02 16:14:41;;;;;;;2.93;2.37;;;;;;;19.40;56.33;96942.16;10381204;28;20566;-22
2022/01/02 16:19:44;;;;;;;3.73;2.27;;;;;;;19.39;56.29;96945.53;10392919;28;20063;-22
2022/01/02 16:24:44;;;;;;;4.15;2.80;;;;;;;19.40;56.25;96954.84;10367237;28;20558;-22
2022/01/02 16:29:45;;;;;;;2.47;2.28;;;;;;;19.43;55.90;96957.41;10367674;28;20038;-22
2022/01/02 16:34:45;;;;;;;3.17;2.17;;;;;;;19.43;56.18;96967.56;10367196;28;20577;-22
2022/01/02 16:39:46;;;;;;;3.67;2.30;;;;;;;19.40;56.36;96967.53;10368108;28;20109;-22
2022/01/02 16:44:46;;;;;;;5.07;3.07;;;;;;;19.42;56.32;96986.19;10375177;28;20045;-22
2022/01/02 16:49:48;;;;;;;2.67;1.90;;;;;;;19.43;56.03;96967.56;10375947;28;20300;-22
2022/01/02 16:54:48;;;;;;;4.15;2.40;;;;;;;19.44;56.18;96959.09;10374363;28;20062;-22
2022/01/02 16:59:49;;;;;;;2.87;2.00;;;;;;;19.41;56.32;96954.03;10374525;28;20128;-22
2022/01/02 17:04:49;;;;;;;3.10;2.07;;;;;;;19.37;56.55;96959.94;10374591;28;21031;-22
2022/01/02 17:09:49;;;;;;;4.40;2.17;;;;;;;19.40;56.49;96972.63;10374476;28;20034;-22
2022/01/02 17:14:50;;;;;;;3.73;2.47;;;;;;;19.42;55.78;96965.88;10388697;28;20036;-22
2022/01/02 17:19:52;;;;;;;2.13;1.80;;;;;;;19.42;56.08;96958.25;10398949;28;20107;-22
2022/01/02 17:24:52;;;;;;;2.72;2.03;;;;;;;19.41;56.18;96954.03;10373703;28;20412;-22
2022/01/02 17:29:53;;;;;;;3.33;1.97;;;;;;;19.40;56.27;96954.84;10373744;28;20069;-22
2022/01/02 17:34:53;;;;;;;3.20;2.05;;;;;;;19.39;56.46;96970.94;10373790;28;20499;-22
2022/01/02 17:39:54;;;;;;;3.30;2.30;;;;;;;19.35;56.16;96954.84;10373680;28;20022;-22
2022/01/02 17:44:54;;;;;;;2.33;1.90;;;;;;;19.39;56.49;96955.69;10373060;28;20044;-21
2022/01/02 17:49:54;;;;;;;2.30;1.60;;;;;;;19.39;56.26;96966.72;10373076;28;20663;-22
2022/01/02 17:54:55;;;;;;;2.97;2.30;;;;;;;19.40;56.56;96954.84;10371994;28;20037;-22
2022/01/02 17:59:55;;;;;;;3.17;2.27;;;;;;;19.34;56.27;96958.22;10372454;28;20368;-22
2022/01/02 18:04:56;;;;;;;3.10;1.92;;;;;;;19.34;56.47;96942.16;10372084;28;20299;-22
2022/01/02 18:10:02;;;;;;;2.80;1.90;;;;;;;19.41;56.32;96969.25;10372092;28;20111;-22
2022/01/02 18:15:05;;;;;;;2.80;1.85;;;;;;;19.41;56.17;96964.19;10388014;28;20458;-22
2022/01/02 18:20:07;;;;;;;2.72;1.80;;;;;;;19.39;56.30;96950.63;10394839;28;20041;-22
2022/01/02 18:25:10;;;;;;;3.25;2.30;;;;;;;19.38;56.44;96936.22;10371627;28;20092;-22
2022/01/02 18:30:11;;;;;;;3.22;2.20;;;;;;;19.36;56.44;96946.41;10371334;28;20040;-22
2022/01/02 18:35:12;;;;;;;2.28;1.83;;;;;;;19.37;56.35;96970.94;10371004;28;20038;-22
2022/01/02 18:40:15;;;;;;;2.00;1.67;;;;;;;19.37;56.08;96992.94;10370948;28;20044;-21
2022/01/02 18:45:15;;;;;;;6.03;2.25;;;;;;;19.36;55.79;96991.25;10370577;28;20044;-22
2022/01/02 18:50:17;;;;;;;4.68;2.30;;;;;;;19.35;56.42;96984.47;10388251;28;20423;-22
2022/01/02 18:55:17;;;;;;;5.97;2.15;;;;;;;19.37;56.10;96998.00;10404348;28;20635;-21
2022/01/02 19:00:18;;;;;;;2.87;2.00;;;;;;;19.39;56.45;97006.47;10391995;28;20045;-22
2022/01/02 19:05:18;;;;;;;4.50;2.35;;;;;;;19.40;56.22;97008.16;10393801;28;20037;-21
2022/01/02 19:10:19;;;;;;;3.65;2.10;;;;;;;19.45;56.38;97001.41;10402783;28;20029;-22
2022/01/02 19:15:19;;;;;;;5.33;2.40;;;;;;;19.43;56.41;97009.03;10401946;28;20037;-22
2022/01/02 19:20:20;;;;;;;5.22;2.20;;;;;;;19.42;56.55;97016.66;10397485;28;20129;-22
2022/01/02 19:25:21;;;;;;;6.13;1.87;;;;;;;19.42;56.58;97001.41;10405523;28;20044;-22
2022/01/02 19:30:22;;;;;;;10.00;2.35;;;;;;;19.32;55.81;96970.09;10395860;28;20782;-22
2022/01/02 19:35:22;;;;;;;7.60;2.50;;;;;;;19.42;55.87;96997.16;10399455;28;20034;-22
2022/01/02 19:40:23;;;;;;;9.37;2.60;;;;;;;19.40;56.45;96998.88;10401031;28;20610;-22
2022/01/02 19:45:24;;;;;;;12.57;2.10;;;;;;;19.45;55.73;97052.19;10400140;28;20049;-22
2022/01/02 19:50:24;;;;;;;5.15;2.20;;;;;;;19.38;56.11;97036.13;10402027;28;20026;-22
2022/01/02 19:55:25;;;;;;;3.78;1.70;;;;;;;19.40;56.30;97036.97;10402373;28;20037;-21
2022/01/02 20:00:26;;;;;;;6.07;2.67;;;;;;;19.40;56.22;97013.25;10396702;28;20069;-22
2022/01/02 20:05:26;;;;;;;6.55;2.33;;;;;;;19.40;56.27;97048.78;10403121;28;20471;-22
2022/01/02 20:10:27;;;;;;;6.07;2.55;;;;;;;19.37;56.22;97082.66;10405131;28;20033;-22
2022/01/02 20:15:27;;;;;;;4.22;2.58;;;;;;;19.39;56.32;97108.03;10396084;28;20037;-22
2022/01/02 20:20:29;;;;;;;6.15;2.00;;;;;;;19.41;56.00;97080.97;10394053;28;20511;-22
2022/01/02 20:25:32;;;;;;;4.93;1.90;;;;;;;19.38;56.21;97088.56;10404104;28;20048;-22
2022/01/02 20:30:34;;;;;;;5.07;1.95;;;;;;;19.40;56.22;97090.28;10403562;28;20567;-22
2022/01/02 20:35:35;;;;;;;5.10;1.88;;;;;;;19.41;56.02;97091.97;10394903;28;20037;-22
2022/01/02 20:40:35;;;;;;;4.57;2.35;;;;;;;19.41;56.09;97101.28;10403729;28;20107;-22
2022/01/02 20:45:36;;;;;;;3.50;1.80;;;;;;;19.39;56.32;97105.50;10398214;28;20095;-22
2022/01/02 20:50:42;;;;;;;8.52;2.70;;;;;;;19.39;56.42;97108.03;10399661;28;20300;-22
2022/01/02 20:55:44;;;;;;;11.60;4.30;;;;;;;19.39;56.60;97077.56;10401697;28;20042;-22
2022/01/02 21:00:46;;;;;;;5.07;2.28;;;;;;;19.41;56.64;97086.06;10399507;28;20046;-22
2022/01/02 21:05:47;;;;;;;5.35;2.40;;;;;;;19.42;56.62;97097.91;10402358;28;20029;-22
2022/01/02 21:10:49;;;;;;;5.18;2.53;;;;;;;19.39;56.57;97100.41;10403361;28;20404;-22
2022/01/02 21:15:49;;;;;;;5.63;3.00;;;;;;;19.38;57.09;97101.28;10400559;28;20046;-22
2022/01/02 21:20:50;;;;;;;5.37;2.20;;;;;;;19.42;56.55;97100.44;10391457;28;20037;-22
2022/01/02 21:25:50;;;;;;;5.63;3.10;;;;;;;19.39;56.58;97090.25;10403283;28;20037;-22
2022/01/02 21:30:52;;;;;;;7.10;3.00;;;;;;;19.42;56.51;97075.88;10400823;28;20598;-22
2022/01/02 21:35:52;;;;;;;7.55;3.75;;;;;;;19.40;56.66;97076.72;10403467;28;20123;-22
2022/01/02 21:40:52;;;;;;;6.93;2.55;;;;;;;19.33;56.03;97053.03;10414030;28;20143;-22
2022/01/02 21:45:53;;;;;;;9.73;3.80;;;;;;;19.42;56.28;97064.91;10382608;28;20546;-22
2022/01/02 21:50:53;;;;;;;7.57;4.13;;;;;;;19.41;56.73;97073.38;10393547;28;20307;-22
2022/01/02 21:55:54;;;;;;;7.17;3.13;;;;;;;19.35;56.69;97063.19;10410737;28;20120;-22
2022/01/02 22:00:54;;;;;;;7.72;3.60;;;;;;;19.40;56.80;97079.25;10372475;28;20280;-21
2022/01/02 22:06:00;;;;;;;11.75;3.90;;;;;;;19.37;57.01;97059.81;10372175;28;20045;-22
2022/01/02 22:11:03;;;;;;;12.63;3.97;;;;;;;19.40;57.21;97079.25;10372176;28;20033;-22
2022/01/02 22:16:03;;;;;;;9.18;3.50;;;;;;;19.36;57.31;97073.34;10396284;28;20040;-21
2022/01/02 22:21:06;;;;;;;8.48;3.05;;;;;;;19.37;56.50;97075.03;10386564;28;20407;-23
2022/01/02 22:26:07;;;;;;;6.75;3.25;;;;;;;19.36;57.32;97062.34;10371763;28;20062;-22
2022/01/02 22:31:08;;;;;;;8.43;3.25;;;;;;;19.35;57.75;97066.56;10371551;28;20492;-22
2022/01/02 22:36:08;;;;;;;8.63;3.55;;;;;;;19.35;57.23;97075.88;10370987;28;20473;-21
2022/01/02 22:41:08;;;;;;;11.00;4.17;;;;;;;19.36;57.29;97108.03;10370157;28;20048;-22
2022/01/02 22:46:10;;;;;;;11.18;4.38;;;;;;;19.30;57.51;97075.88;10370802;28;20041;-22
2022/01/02 22:51:11;;;;;;;11.05;3.95;;;;;;;19.30;57.49;97067.41;10392657;28;20495;-22
2022/01/02 22:56:13;;;;;;;7.07;2.58;;;;;;;19.37;57.65;97066.56;10411522;28;20045;-22
2022/01/02 23:01:16;;;;;;;9.35;3.17;;;;;;;19.34;58.18;97069.94;10374774;28;20033;-22
2022/01/02 23:06:18;;;;;;;8.77;4.15;;;;;;;19.35;57.60;97056.41;10369746;28;20026;-21
2022/01/02 23:11:24;;;;;;;5.45;3.00;;;;;;;19.38;57.53;97075.88;10369774;28;20064;-22
2022/01/02 23:16:30;;;;;;;5.80;2.83;;;;;;;19.36;57.70;97078.44;10397028;28;20030;-22
2022/01/02 23:21:32;;;;;;;7.00;2.83;;;;;;;19.36;57.41;97082.66;10380553;28;20404;-22
2022/01/02 23:26:33;;;;;;;7.93;3.03;;;;;;;19.36;57.71;97092.81;10369644;28;20025;-22